createdAt,value
2023-03-27T00:00:16.233Z,96305.44
2023-03-27T00:02:19.038Z,96316.47
2023-03-27T00:04:21.436Z,96317.31
2023-03-27T00:06:25.019Z,96315.59
2023-03-27T00:08:26.972Z,96310.47
2023-03-27T00:10:28.309Z,96312.09
2023-03-27T00:12:29.650Z,96316.31
2023-03-27T00:14:31.169Z,96319.63
2023-03-27T00:16:32.523Z,96316.03
2023-03-27T00:18:33.847Z,96314.13
2023-03-27T00:20:37.349Z,96314.91
2023-03-27T00:22:39.640Z,96308.72
2023-03-27T00:24:40.957Z,96309.41
2023-03-27T00:26:43.107Z,96305.03
2023-03-27T00:28:44.495Z,96302.34
2023-03-27T00:30:46.498Z,96304.66
2023-03-27T00:32:47.912Z,96293.38
2023-03-27T00:34:49.221Z,96296.53
2023-03-27T00:36:51.967Z,96292.06
2023-03-27T00:38:53.366Z,96308.22
2023-03-27T00:40:55.570Z,96292.91
2023-03-27T00:42:57.657Z,96292.00
2023-03-27T00:44:59.082Z,96299.91
2023-03-27T00:47:02.849Z,96317.78
2023-03-27T00:49:04.145Z,96294.47
2023-03-27T00:51:05.837Z,96294.25
2023-03-27T00:53:07.240Z,96289.94
2023-03-27T00:55:08.547Z,96294.25
2023-03-27T00:57:09.895Z,96296.81
2023-03-27T00:59:11.271Z,96299.44
2023-03-27T01:01:12.586Z,96291.84
2023-03-27T01:03:14.293Z,96292.00
2023-03-27T01:05:15.691Z,96287.78
2023-03-27T01:07:19.771Z,96284.50
2023-03-27T01:09:21.559Z,96300.81
2023-03-27T01:11:23.010Z,96291.56
2023-03-27T01:13:24.332Z,96294.19
2023-03-27T01:15:25.771Z,96288.28
2023-03-27T01:17:27.138Z,96291.72
2023-03-27T01:19:28.481Z,96290.25
2023-03-27T01:21:29.829Z,96292.13
2023-03-27T01:23:35.735Z,96294.72
2023-03-27T01:25:52.970Z,96299.94
2023-03-27T01:27:54.307Z,96304.28
2023-03-27T01:29:55.614Z,96308.56
2023-03-27T01:31:56.956Z,96307.75
2023-03-27T01:33:58.297Z,96308.63
2023-03-27T01:35:59.663Z,96307.84
2023-03-27T01:38:00.995Z,96317.22
2023-03-27T01:40:04.267Z,96329.97
2023-03-27T01:42:06.348Z,96323.06
2023-03-27T01:44:07.692Z,96328.16
2023-03-27T01:46:09.209Z,96336.72
2023-03-27T01:48:10.662Z,96333.22
2023-03-27T01:50:11.955Z,96336.53
2023-03-27T01:52:13.298Z,96343.25
2023-03-27T01:54:15.411Z,96344.84
2023-03-27T01:56:26.199Z,96347.22
2023-03-27T01:58:28.264Z,96352.94
2023-03-27T02:00:51.104Z,96352.63
2023-03-27T02:02:51.550Z,96360.91
2023-03-27T02:04:53.024Z,96366.53
2023-03-27T02:06:54.359Z,96375.63
2023-03-27T02:08:55.656Z,96380.56
2023-03-27T02:10:57.222Z,96392.44
2023-03-27T02:12:58.651Z,96389.72
2023-03-27T02:15:22.530Z,96394.84
2023-03-27T02:17:21.584Z,96412.88
2023-03-27T02:19:23.330Z,96411.16
2023-03-27T02:21:24.662Z,96422.34
2023-03-27T02:23:26.115Z,96424.91
2023-03-27T02:25:27.474Z,96430.19
2023-03-27T02:27:28.779Z,96433.94
2023-03-27T02:29:30.521Z,96434.09
2023-03-27T02:31:34.836Z,96436.94
2023-03-27T02:33:36.560Z,96448.38
2023-03-27T02:35:37.869Z,96445.97
2023-03-27T02:37:39.536Z,96452.19
2023-03-27T02:39:41.047Z,96458.41
2023-03-27T02:41:42.338Z,96459.47
2023-03-27T02:43:43.664Z,96466.50
2023-03-27T02:45:45.038Z,96477.03
2023-03-27T02:47:46.373Z,96476.34
2023-03-27T02:49:47.757Z,96480.84
2023-03-27T02:51:49.091Z,96484.47
2023-03-27T02:53:50.388Z,96486.28
2023-03-27T02:55:51.694Z,96496.63
2023-03-27T02:57:53.056Z,96496.66
2023-03-27T02:59:54.819Z,96499.31
2023-03-27T03:01:56.190Z,96507.66
2023-03-27T03:03:57.745Z,96517.72
2023-03-27T03:05:59.073Z,96522.66
2023-03-27T03:08:00.407Z,96531.09
2023-03-27T03:10:01.702Z,96535.25
2023-03-27T03:12:03.137Z,96542.72
2023-03-27T03:14:04.456Z,96543.88
2023-03-27T03:16:05.771Z,96540.00
2023-03-27T03:18:07.680Z,96550.00
2023-03-27T03:20:09.844Z,96547.31
2023-03-27T03:22:11.464Z,96552.97
2023-03-27T03:24:13.034Z,96561.16
2023-03-27T03:26:14.340Z,96568.44
2023-03-27T03:28:18.151Z,96572.38
2023-03-27T03:30:19.481Z,96583.13
2023-03-27T03:32:21.083Z,96586.38
2023-03-27T03:34:27.921Z,96587.22
2023-03-27T03:36:30.878Z,96596.47
2023-03-27T03:38:37.862Z,96605.72
2023-03-27T03:40:39.685Z,96610.06
2023-03-27T03:42:41.126Z,96619.59
2023-03-27T03:44:42.425Z,96618.09
2023-03-27T03:46:43.811Z,96631.16
2023-03-27T03:48:45.221Z,96628.84
2023-03-27T03:50:46.551Z,96644.34
2023-03-27T03:52:47.952Z,96651.34
2023-03-27T03:54:49.243Z,96654.94
2023-03-27T03:56:50.613Z,96656.66
2023-03-27T03:58:52.563Z,96657.72
2023-03-27T04:00:54.600Z,96669.69
2023-03-27T04:02:56.090Z,96675.94
2023-03-27T04:04:57.469Z,96687.78
2023-03-27T04:06:58.924Z,96689.66
2023-03-27T04:09:00.270Z,96694.09
2023-03-27T04:11:01.626Z,96710.44
2023-03-27T04:13:02.972Z,96720.09
2023-03-27T04:15:04.247Z,96726.22
2023-03-27T04:17:05.542Z,96724.72
2023-03-27T04:19:07.217Z,96736.69
2023-03-27T04:21:14.776Z,96744.56
2023-03-27T04:23:18.471Z,96745.56
2023-03-27T04:25:19.821Z,96746.66
2023-03-27T04:27:23.964Z,96741.06
2023-03-27T04:29:25.881Z,96743.84
2023-03-27T04:31:28.538Z,96737.13
2023-03-27T04:33:30.921Z,96750.72
2023-03-27T04:35:33.746Z,96758.38
2023-03-27T04:37:35.081Z,96765.91
2023-03-27T04:39:41.628Z,96763.09
2023-03-27T04:41:45.875Z,96768.03
2023-03-27T04:43:47.192Z,96763.59
2023-03-27T04:45:48.494Z,96765.03
2023-03-27T04:47:50.054Z,96761.97
2023-03-27T04:49:51.466Z,96764.00
2023-03-27T04:51:52.816Z,96777.16
2023-03-27T04:53:56.404Z,96783.66
2023-03-27T04:55:57.806Z,96773.84
2023-03-27T04:58:00.177Z,96787.94
2023-03-27T05:00:02.284Z,96784.28
2023-03-27T05:02:03.601Z,96789.34
2023-03-27T05:04:05.062Z,96795.22
2023-03-27T05:06:06.402Z,96800.38
2023-03-27T05:08:07.843Z,96810.69
2023-03-27T05:10:09.294Z,96809.94
2023-03-27T05:12:10.809Z,96816.06
2023-03-27T05:14:12.162Z,96818.88
2023-03-27T05:16:13.588Z,96823.22
2023-03-27T05:18:16.183Z,96827.72
2023-03-27T05:20:17.691Z,96836.47
2023-03-27T05:22:18.990Z,96825.69
2023-03-27T05:24:20.287Z,96835.25
2023-03-27T05:26:22.267Z,96838.84
2023-03-27T05:28:23.761Z,96839.94
2023-03-27T05:30:26.283Z,96845.25
2023-03-27T05:32:27.718Z,96847.06
2023-03-27T05:34:30.139Z,96851.47
2023-03-27T05:36:31.449Z,96849.94
2023-03-27T05:38:33.224Z,96853.47
2023-03-27T05:40:34.732Z,96861.25
2023-03-27T05:42:36.556Z,96867.47
2023-03-27T05:44:37.876Z,96871.91
2023-03-27T05:46:40.119Z,96870.41
2023-03-27T05:48:41.831Z,96884.84
2023-03-27T05:50:43.270Z,96879.88
2023-03-27T05:52:44.575Z,96884.84
2023-03-27T05:54:46.136Z,96898.50
2023-03-27T05:56:47.550Z,96897.69
2023-03-27T05:58:48.868Z,96901.13
2023-03-27T06:00:50.520Z,96901.03
2023-03-27T06:02:51.930Z,96915.25
2023-03-27T06:04:53.409Z,96915.03
2023-03-27T06:06:55.394Z,96919.97
2023-03-27T06:08:57.100Z,96919.84
2023-03-27T06:10:58.823Z,96921.34
2023-03-27T06:13:01.074Z,96918.47
2023-03-27T06:15:02.401Z,96924.94
2023-03-27T06:17:03.696Z,96923.84
2023-03-27T06:19:05.028Z,96923.47
2023-03-27T06:21:06.605Z,96927.38
2023-03-27T06:23:09.295Z,96931.31
2023-03-27T06:25:10.807Z,96933.50
2023-03-27T06:27:12.099Z,96942.56
2023-03-27T06:29:13.400Z,96940.78
2023-03-27T06:31:14.979Z,96952.53
2023-03-27T06:33:16.839Z,96961.78
2023-03-27T06:35:18.487Z,96965.25
2023-03-27T06:37:20.034Z,96971.34
2023-03-27T06:39:21.733Z,96971.47
2023-03-27T06:41:23.993Z,96976.69
2023-03-27T06:43:25.811Z,96975.16
2023-03-27T06:45:27.466Z,96990.69
2023-03-27T06:47:29.938Z,96989.97
2023-03-27T06:49:31.659Z,96989.31
2023-03-27T06:51:32.979Z,96993.75
2023-03-27T06:53:37.988Z,96994.69
2023-03-27T06:55:39.875Z,97000.91
2023-03-27T06:57:41.328Z,97007.88
2023-03-27T06:59:42.648Z,97005.41
2023-03-27T07:01:44.088Z,97007.06
2023-03-27T07:03:45.478Z,97010.06
2023-03-27T07:05:46.843Z,97009.56
2023-03-27T07:07:49.415Z,97012.88
2023-03-27T07:09:50.863Z,97016.47
2023-03-27T07:11:52.166Z,97030.22
2023-03-27T07:13:53.545Z,97017.72
2023-03-27T07:15:55.368Z,97028.88
2023-03-27T07:17:56.789Z,97035.06
2023-03-27T07:19:58.153Z,97029.28
2023-03-27T07:21:59.856Z,97040.47
2023-03-27T07:24:01.167Z,97043.13
2023-03-27T07:26:02.542Z,97041.13
2023-03-27T07:28:05.604Z,97045.09
2023-03-27T07:30:08.166Z,97049.78
2023-03-27T07:32:09.689Z,97056.97
2023-03-27T07:34:14.398Z,97048.06
2023-03-27T07:36:16.233Z,97056.97
2023-03-27T07:38:18.326Z,97052.09
2023-03-27T07:40:29.386Z,97059.84
2023-03-27T07:42:38.909Z,97064.84
2023-03-27T07:44:40.201Z,97060.47
2023-03-27T07:46:41.496Z,97067.13
2023-03-27T07:48:42.827Z,97069.34
2023-03-27T07:50:45.051Z,97074.84
2023-03-27T07:52:46.525Z,97078.72
2023-03-27T07:54:48.864Z,97078.19
2023-03-27T07:56:50.187Z,97077.78
2023-03-27T07:58:51.642Z,97081.63
2023-03-27T08:00:53.041Z,97080.44
2023-03-27T08:02:54.529Z,97098.13
2023-03-27T08:04:56.208Z,97100.47
2023-03-27T08:06:57.589Z,97096.19
2023-03-27T08:09:01.074Z,97099.66
2023-03-27T08:11:04.020Z,97099.81
2023-03-27T08:13:05.362Z,97096.41
2023-03-27T08:15:06.662Z,97100.75
2023-03-27T08:17:15.561Z,97100.03
2023-03-27T08:19:18.673Z,97101.84
2023-03-27T08:21:20.228Z,97105.28
2023-03-27T08:23:21.634Z,97106.66
2023-03-27T08:25:23.075Z,97111.28
2023-03-27T08:27:24.534Z,97114.91
2023-03-27T08:29:26.051Z,97116.66
2023-03-27T08:31:30.569Z,97116.78
2023-03-27T08:33:32.006Z,97125.34
2023-03-27T08:35:33.326Z,97122.91
2023-03-27T08:37:34.978Z,97120.28
2023-03-27T08:39:36.353Z,97123.59
2023-03-27T08:41:42.344Z,97125.94
2023-03-27T08:43:43.710Z,97141.72
2023-03-27T08:45:45.033Z,97142.56
2023-03-27T08:47:46.390Z,97145.91
2023-03-27T08:49:47.743Z,97146.97
2023-03-27T08:51:49.036Z,97152.97
2023-03-27T08:53:50.630Z,97144.53
2023-03-27T08:55:52.426Z,97151.88
2023-03-27T08:57:54.881Z,97147.34
2023-03-27T08:59:56.172Z,97145.03
2023-03-27T09:01:57.546Z,97159.50
2023-03-27T09:03:59.140Z,97149.84
2023-03-27T09:06:00.572Z,97151.16
2023-03-27T09:08:02.062Z,97142.03
2023-03-27T09:10:03.403Z,97150.94
2023-03-27T09:12:04.839Z,97153.44
2023-03-27T09:14:06.251Z,97164.38
2023-03-27T09:16:07.677Z,97159.25
2023-03-27T09:18:09.083Z,97152.91
2023-03-27T09:20:10.433Z,97170.19
2023-03-27T09:22:11.845Z,97164.25
2023-03-27T09:24:13.136Z,97162.97
2023-03-27T09:26:14.493Z,97173.38
2023-03-27T09:28:15.807Z,97164.66
2023-03-27T09:30:20.077Z,97175.78
2023-03-27T09:32:21.431Z,97168.00
2023-03-27T09:34:23.058Z,97176.38
2023-03-27T09:36:24.714Z,97179.75
2023-03-27T09:38:26.127Z,97177.66
2023-03-27T09:40:30.742Z,97178.94
2023-03-27T09:42:32.037Z,97176.03
2023-03-27T09:44:33.332Z,97183.91
2023-03-27T09:46:34.728Z,97190.69
2023-03-27T09:48:36.170Z,97183.59
2023-03-27T09:50:41.479Z,97196.59
2023-03-27T09:52:43.273Z,97194.97
2023-03-27T09:54:44.598Z,97203.34
2023-03-27T09:56:46.489Z,97202.66
2023-03-27T09:58:49.099Z,97200.22
2023-03-27T10:04:36.700Z,97206.72
2023-03-27T10:06:38.769Z,97205.34
2023-03-27T10:08:41.956Z,97206.56
2023-03-27T10:10:45.172Z,97211.38
2023-03-27T10:12:46.488Z,97204.00
2023-03-27T10:14:47.891Z,97202.31
2023-03-27T10:16:49.527Z,97208.81
2023-03-27T10:18:55.664Z,97203.47
2023-03-27T10:20:57.237Z,97200.59
2023-03-27T10:22:58.660Z,97215.00
2023-03-27T10:25:00.008Z,97202.31
2023-03-27T10:27:02.247Z,97214.34
2023-03-27T10:29:05.127Z,97213.81
2023-03-27T10:31:08.377Z,97210.41
2023-03-27T10:33:09.774Z,97229.44
2023-03-27T10:35:12.520Z,97221.41
2023-03-27T10:37:14.539Z,97227.19
2023-03-27T10:39:15.923Z,97228.47
2023-03-27T10:41:28.299Z,97234.84
2023-03-27T10:43:30.928Z,97237.66
2023-03-27T10:45:32.599Z,97236.94
2023-03-27T10:47:34.103Z,97238.72
2023-03-27T10:49:35.795Z,97110.22
2023-03-27T10:51:46.049Z,97251.09
2023-03-27T10:53:49.218Z,97250.47
2023-03-27T10:55:52.119Z,97247.03
2023-03-27T10:57:54.061Z,97245.09
2023-03-27T10:59:55.626Z,97254.31
2023-03-27T11:01:56.968Z,97251.47
2023-03-27T11:03:58.374Z,97250.22
2023-03-27T11:05:59.742Z,97252.31
2023-03-27T11:08:01.258Z,97252.31
2023-03-27T11:10:02.557Z,97257.56
2023-03-27T11:12:04.415Z,97252.81
2023-03-27T11:14:05.766Z,97260.13
2023-03-27T11:16:07.149Z,97262.69
2023-03-27T11:18:08.494Z,97257.94
2023-03-27T11:20:11.194Z,97265.19
2023-03-27T11:22:12.871Z,97259.28
2023-03-27T11:24:16.557Z,97264.56
2023-03-27T11:26:18.236Z,97267.16
2023-03-27T11:28:19.594Z,97268.53
2023-03-27T11:30:20.984Z,97274.25
2023-03-27T11:32:22.407Z,97279.84
2023-03-27T11:34:29.348Z,97277.56
2023-03-27T11:36:31.006Z,97283.63
2023-03-27T11:38:32.731Z,97303.66
2023-03-27T11:40:34.984Z,97292.34
2023-03-27T11:42:36.987Z,97303.00
2023-03-27T11:44:38.434Z,97297.63
2023-03-27T11:46:39.753Z,97302.66
2023-03-27T11:48:41.512Z,97305.28
2023-03-27T11:50:42.814Z,97305.34
2023-03-27T11:52:44.111Z,97303.94
2023-03-27T11:54:45.663Z,97313.78
2023-03-27T11:56:49.660Z,97310.50
2023-03-27T11:58:51.048Z,97305.25
2023-03-27T12:00:52.610Z,97307.41
2023-03-27T12:02:55.196Z,97309.84
2023-03-27T12:04:56.772Z,97312.41
2023-03-27T12:07:04.008Z,97314.03
2023-03-27T12:09:09.663Z,97315.66
2023-03-27T12:11:12.247Z,97310.84
2023-03-27T12:13:13.666Z,97325.22
2023-03-27T12:15:18.233Z,97317.41
2023-03-27T12:17:19.552Z,97329.84
2023-03-27T12:19:28.361Z,97334.53
2023-03-27T12:21:31.075Z,97341.59
2023-03-27T12:23:32.416Z,97339.34
2023-03-27T12:25:35.933Z,97341.22
2023-03-27T12:27:37.570Z,97338.81
2023-03-27T12:29:38.893Z,97342.22
2023-03-27T12:31:42.292Z,97329.31
2023-03-27T12:33:43.598Z,97327.84
2023-03-27T12:35:47.060Z,97333.53
2023-03-27T12:37:48.835Z,97323.66
2023-03-27T12:39:51.894Z,97320.28
2023-03-27T12:41:53.296Z,97315.75
2023-03-27T12:43:54.745Z,97323.44
2023-03-27T12:45:56.057Z,97320.41
2023-03-27T12:47:57.431Z,97318.53
2023-03-27T12:49:58.794Z,97314.94
2023-03-27T12:52:02.840Z,97319.91
2023-03-27T12:54:04.135Z,97328.09
2023-03-27T12:56:05.461Z,97333.59
2023-03-27T12:58:07.427Z,97324.66
2023-03-27T13:00:09.975Z,97332.44
2023-03-27T13:02:11.578Z,97328.31
2023-03-27T13:04:12.971Z,97329.69
2023-03-27T13:06:14.281Z,97319.06
2023-03-27T13:08:15.591Z,97328.22
2023-03-27T13:10:16.943Z,97321.44
2023-03-27T13:12:18.254Z,97319.78
2023-03-27T13:14:19.596Z,97322.34
2023-03-27T13:16:21.593Z,97324.19
2023-03-27T13:18:22.994Z,97329.41
2023-03-27T13:20:24.574Z,97334.09
2023-03-27T13:22:26.112Z,97337.25
2023-03-27T13:24:27.795Z,97339.88
2023-03-27T13:26:29.122Z,97354.09
2023-03-27T13:28:30.652Z,97343.53
2023-03-27T13:30:32.298Z,97370.06
2023-03-27T13:32:33.721Z,97355.16
2023-03-27T13:34:35.163Z,97350.44
2023-03-27T13:36:36.499Z,97345.13
2023-03-27T13:38:38.066Z,97350.25
2023-03-27T13:40:40.647Z,97348.22
2023-03-27T13:42:44.814Z,97344.75
2023-03-27T13:44:46.990Z,97333.38
2023-03-27T13:46:48.397Z,97336.56
2023-03-27T13:48:50.594Z,97342.47
2023-03-27T13:50:52.178Z,97345.84
2023-03-27T13:52:53.508Z,97341.59
2023-03-27T13:54:54.810Z,97337.41
2023-03-27T13:56:56.106Z,97334.78
2023-03-27T13:58:57.439Z,97337.34
2023-03-27T14:00:58.772Z,97340.78
2023-03-27T14:03:00.314Z,97349.66
2023-03-27T14:05:01.774Z,97350.78
2023-03-27T14:07:03.183Z,97346.53
2023-03-27T14:09:06.197Z,97345.13
2023-03-27T14:11:10.513Z,97344.38
2023-03-27T14:13:11.896Z,97351.56
2023-03-27T14:15:13.194Z,97355.16
2023-03-27T14:17:14.498Z,97358.59
2023-03-27T14:19:16.112Z,97360.22
2023-03-27T14:21:27.543Z,97369.44
2023-03-27T14:23:41.173Z,97368.41
2023-03-27T14:25:43.839Z,97378.34
2023-03-27T14:27:45.651Z,97378.13
2023-03-27T14:29:49.582Z,97386.47
2023-03-27T14:31:51.103Z,97387.81
2023-03-27T14:33:52.546Z,97380.50
2023-03-27T14:35:57.252Z,97393.41
2023-03-27T14:38:00.230Z,97393.66
2023-03-27T14:40:01.672Z,97390.63
2023-03-27T14:42:03.049Z,97384.56
2023-03-27T14:44:08.443Z,97380.06
2023-03-27T14:46:09.972Z,97376.63
2023-03-27T14:48:11.746Z,97378.38
2023-03-27T14:50:13.235Z,97381.75
2023-03-27T14:52:17.916Z,97381.41
2023-03-27T14:54:26.511Z,97375.94
2023-03-27T14:56:27.900Z,97380.63
2023-03-27T14:58:29.304Z,97381.06
2023-03-27T15:00:30.594Z,97389.88
2023-03-27T15:02:32.624Z,97399.59
2023-03-27T15:04:33.976Z,97398.19
2023-03-27T15:06:37.503Z,97410.31
2023-03-27T15:08:38.980Z,97424.28
2023-03-27T15:10:40.367Z,97447.44
2023-03-27T15:12:41.920Z,97473.16
2023-03-27T15:14:43.260Z,97475.94
2023-03-27T15:16:44.712Z,97475.25
2023-03-27T15:18:46.497Z,97477.97
2023-03-27T15:20:47.871Z,97484.94
2023-03-27T15:22:49.170Z,97479.13
2023-03-27T15:24:50.965Z,97490.34
2023-03-27T15:26:52.583Z,97478.41
2023-03-27T15:28:53.954Z,97455.22
2023-03-27T15:30:58.033Z,97458.47
2023-03-27T15:33:05.052Z,97464.50
2023-03-27T15:35:06.717Z,97469.69
2023-03-27T15:37:10.030Z,97471.38
2023-03-27T15:39:11.474Z,97466.25
2023-03-27T15:41:12.768Z,97462.03
2023-03-27T15:43:14.184Z,97465.44
2023-03-27T15:45:16.757Z,97466.19
2023-03-27T15:47:18.116Z,97466.94
2023-03-27T15:49:19.454Z,97471.91
2023-03-27T15:51:21.081Z,97478.56
2023-03-27T15:53:22.445Z,97470.78
2023-03-27T15:55:26.672Z,97468.94
2023-03-27T15:57:31.273Z,97468.69
2023-03-27T15:59:32.692Z,97475.09
2023-03-27T16:01:34.816Z,97469.75
2023-03-27T16:03:36.606Z,97476.28
2023-03-27T16:05:38.331Z,97479.50
2023-03-27T16:07:42.288Z,97478.47
2023-03-27T16:09:43.623Z,97474.06
2023-03-27T16:11:45.880Z,97477.34
2023-03-27T16:13:47.331Z,97479.75
2023-03-27T16:15:49.675Z,97477.16
2023-03-27T16:17:52.116Z,97482.22
2023-03-27T16:19:53.484Z,97477.16
2023-03-27T16:21:55.131Z,97478.03
2023-03-27T16:23:56.623Z,97483.22
2023-03-27T16:25:58.132Z,97485.00
2023-03-27T16:27:59.773Z,97493.69
2023-03-27T16:30:04.353Z,97499.78
2023-03-27T16:32:05.873Z,97492.31
2023-03-27T16:34:07.187Z,97502.84
2023-03-27T16:36:08.565Z,97498.06
2023-03-27T16:38:12.599Z,97507.63
2023-03-27T16:40:14.698Z,97501.91
2023-03-27T16:42:16.985Z,97505.53
2023-03-27T16:44:18.965Z,97515.91
2023-03-27T16:46:21.981Z,97514.38
2023-03-27T16:48:23.391Z,97532.47
2023-03-27T16:50:24.919Z,97536.06
2023-03-27T16:52:29.426Z,97547.31
2023-03-27T16:54:33.759Z,97547.50
2023-03-27T16:56:35.388Z,97554.47
2023-03-27T16:58:39.776Z,97552.91
2023-03-27T17:00:41.125Z,97558.09
2023-03-27T17:02:44.561Z,97548.88
2023-03-27T17:04:46.633Z,97559.16
2023-03-27T17:06:48.080Z,97561.78
2023-03-27T17:08:55.249Z,97565.19
2023-03-27T17:10:56.897Z,97571.09
2023-03-27T17:13:01.302Z,97567.59
2023-03-27T17:15:03.863Z,97564.13
2023-03-27T17:17:05.380Z,97578.38
2023-03-27T17:19:09.744Z,97577.34
2023-03-27T17:21:11.088Z,97581.38
2023-03-27T17:23:12.447Z,97581.25
2023-03-27T17:25:14.164Z,97588.91
2023-03-27T17:27:15.481Z,97583.88
2023-03-27T17:29:17.930Z,97590.81
2023-03-27T17:31:21.924Z,97587.63
2023-03-27T17:33:23.279Z,97595.34
2023-03-27T17:35:27.443Z,97591.19
2023-03-27T17:37:28.801Z,97597.06
2023-03-27T17:39:30.227Z,97600.25
2023-03-27T17:41:32.564Z,97601.63
2023-03-27T17:43:33.897Z,97606.44
2023-03-27T17:45:35.230Z,97608.63
2023-03-27T17:47:39.563Z,97614.44
2023-03-27T17:49:43.395Z,97615.06
2023-03-27T17:51:48.114Z,97616.59
2023-03-27T17:53:52.570Z,97622.34
2023-03-27T17:55:53.889Z,97624.78
2023-03-27T17:58:08.291Z,97620.41
2023-03-27T18:00:10.580Z,97616.91
2023-03-27T18:02:13.006Z,97633.88
2023-03-27T18:04:14.370Z,97638.97
2023-03-27T18:06:17.475Z,97628.75
2023-03-27T18:08:19.883Z,97633.84
2023-03-27T18:10:21.284Z,97635.63
2023-03-27T18:12:25.612Z,97635.72
2023-03-27T18:14:27.077Z,97630.75
2023-03-27T18:16:28.554Z,97630.94
2023-03-27T18:18:29.897Z,97620.09
2023-03-27T18:20:31.222Z,97623.66
2023-03-27T18:22:35.509Z,97636.63
2023-03-27T18:24:40.445Z,97626.59
2023-03-27T18:26:41.791Z,97629.34
2023-03-27T18:28:43.208Z,97629.53
2023-03-27T18:30:44.606Z,97626.25
2023-03-27T18:32:46.042Z,97630.66
2023-03-27T18:34:47.388Z,97626.56
2023-03-27T18:36:51.769Z,97625.84
2023-03-27T18:38:53.139Z,97626.91
2023-03-27T18:41:04.906Z,97635.56
2023-03-27T18:43:06.293Z,97634.88
2023-03-27T18:45:07.673Z,97640.03
2023-03-27T18:47:09.650Z,97646.97
2023-03-27T18:49:24.234Z,97656.31
2023-03-27T18:51:26.496Z,97660.59
2023-03-27T18:53:30.952Z,97658.88
2023-03-27T18:55:32.430Z,97655.34
2023-03-27T18:57:37.357Z,97670.59
2023-03-27T18:59:38.653Z,97658.53
2023-03-27T19:01:39.975Z,97659.19
2023-03-27T19:03:42.097Z,97671.72
2023-03-27T19:05:55.770Z,97668.03
2023-03-27T19:07:59.321Z,97675.31
2023-03-27T19:10:00.780Z,97672.38
2023-03-27T19:12:02.219Z,97675.59
2023-03-27T19:14:03.559Z,97670.25
2023-03-27T19:16:14.261Z,97674.34
2023-03-27T19:18:17.121Z,97678.31
2023-03-27T19:20:18.457Z,97677.38
2023-03-27T19:22:22.727Z,97684.03
2023-03-27T19:24:29.785Z,97683.97
2023-03-27T19:26:31.139Z,97680.59
2023-03-27T19:28:35.119Z,97695.94
2023-03-27T19:30:36.436Z,97680.69
2023-03-27T19:32:37.792Z,97682.41
2023-03-27T19:34:42.723Z,97683.41
2023-03-27T19:36:44.577Z,97679.31
2023-03-27T19:38:46.151Z,97683.00
2023-03-27T19:40:47.478Z,97709.59
2023-03-27T19:42:48.829Z,97688.50
2023-03-27T19:44:50.163Z,97687.84
2023-03-27T19:46:51.546Z,97688.94
2023-03-27T19:48:53.091Z,97689.97
2023-03-27T19:50:54.471Z,97682.47
2023-03-27T19:53:07.630Z,97695.41
2023-03-27T19:55:10.235Z,97685.41
2023-03-27T19:57:11.670Z,97687.31
2023-03-27T19:59:17.998Z,97688.38
2023-03-27T20:01:29.999Z,97692.75
2023-03-27T20:03:31.695Z,97693.75
2023-03-27T20:05:33.059Z,97690.41
2023-03-27T20:07:37.442Z,97686.28
2023-03-27T20:09:41.818Z,97692.31
2023-03-27T20:11:43.822Z,97684.66
2023-03-27T20:13:56.186Z,97679.56
2023-03-27T20:15:58.775Z,97699.09
2023-03-27T20:18:00.956Z,97683.66
2023-03-27T20:20:02.415Z,97691.13
2023-03-27T20:22:07.757Z,97686.69
2023-03-27T20:24:10.036Z,97683.03
2023-03-27T20:26:11.618Z,97686.97
2023-03-27T20:28:15.577Z,97694.28
2023-03-27T20:30:16.888Z,97693.88
2023-03-27T20:32:18.386Z,97690.16
2023-03-27T20:34:22.393Z,97679.69
2023-03-27T20:36:24.220Z,97691.31
2023-03-27T20:38:31.754Z,97690.28
2023-03-27T20:40:52.795Z,97686.72
2023-03-27T20:43:03.138Z,97678.91
2023-03-27T20:45:04.827Z,97667.75
2023-03-27T20:47:12.398Z,97683.03
2023-03-27T20:49:37.632Z,97678.91
2023-03-27T20:51:42.564Z,97681.56
2023-03-27T20:53:43.871Z,97677.31
2023-03-27T20:55:57.068Z,97676.59
2023-03-27T20:58:01.096Z,97681.00
2023-03-27T21:00:02.461Z,97675.34
2023-03-27T21:02:03.834Z,97680.72
2023-03-27T21:04:06.932Z,97669.84
2023-03-27T21:06:08.272Z,97687.94
2023-03-27T21:08:09.567Z,97682.19
2023-03-27T21:10:10.887Z,97675.59
2023-03-27T21:12:12.337Z,97679.16
2023-03-27T21:14:13.681Z,97673.41
2023-03-27T21:16:15.027Z,97680.41
2023-03-27T21:18:16.363Z,97672.94
2023-03-27T21:20:17.658Z,97684.13
2023-03-27T21:22:19.039Z,97675.69
2023-03-27T21:24:20.478Z,97679.22
2023-03-27T21:26:21.808Z,97679.84
2023-03-27T21:28:23.118Z,97687.41
2023-03-27T21:30:24.416Z,97680.44
2023-03-27T21:32:47.119Z,97679.50
2023-03-27T21:34:48.496Z,97663.69
2023-03-27T21:36:49.881Z,97668.16
2023-03-27T21:38:51.368Z,97668.44
2023-03-27T21:40:52.677Z,97667.91
2023-03-27T21:42:54.022Z,97665.91
2023-03-27T21:44:57.223Z,97673.97
2023-03-27T21:47:01.788Z,97669.59
2023-03-27T21:49:03.106Z,97664.25
2023-03-27T21:51:04.560Z,97673.31
2023-03-27T21:53:06.021Z,97667.84
2023-03-27T21:55:07.330Z,97672.94
2023-03-27T21:57:08.834Z,97664.69
2023-03-27T21:59:10.195Z,97671.63
2023-03-27T22:01:11.695Z,97672.47
2023-03-27T22:03:13.055Z,97673.31
2023-03-27T22:05:14.377Z,97673.22
2023-03-27T22:07:15.994Z,97673.44
2023-03-27T22:09:17.352Z,97676.03
2023-03-27T22:11:18.668Z,97659.75
2023-03-27T22:13:20.007Z,97668.59
2023-03-27T22:15:21.562Z,97677.25
2023-03-27T22:17:22.905Z,97673.19
2023-03-27T22:19:24.244Z,97671.66
2023-03-27T22:21:25.628Z,97671.59
2023-03-27T22:23:26.961Z,97667.28
2023-03-27T22:25:28.335Z,97673.25
2023-03-27T22:27:29.682Z,97672.59
2023-03-27T22:29:31.064Z,97666.41
2023-03-27T22:31:32.412Z,97666.63
2023-03-27T22:33:33.857Z,97670.97
2023-03-27T22:35:35.459Z,97660.19
2023-03-27T22:37:38.050Z,97663.00
2023-03-27T22:39:39.387Z,97664.03
2023-03-27T22:41:40.849Z,97664.97
2023-03-27T22:43:42.313Z,97661.91
2023-03-27T22:45:43.659Z,97661.50
2023-03-27T22:47:45.052Z,97660.56
2023-03-27T22:49:46.494Z,97655.00
2023-03-27T22:51:47.791Z,97661.66
2023-03-27T22:53:49.091Z,97667.78
2023-03-27T22:55:50.474Z,97652.81
2023-03-27T22:57:51.768Z,97656.41
2023-03-27T22:59:53.101Z,97652.47
2023-03-27T23:01:54.614Z,97666.78
2023-03-27T23:03:56.265Z,97666.94
2023-03-27T23:05:57.915Z,97656.25
2023-03-27T23:07:59.395Z,97648.25
2023-03-27T23:10:00.905Z,97651.88
2023-03-27T23:12:02.228Z,97655.34
2023-03-27T23:14:03.524Z,97647.53
2023-03-27T23:16:04.826Z,97656.63
2023-03-27T23:18:06.393Z,97653.72
2023-03-27T23:20:07.741Z,97659.22
2023-03-27T23:22:09.047Z,97658.69
2023-03-27T23:24:10.374Z,97659.16
2023-03-27T23:26:12.832Z,97674.59
2023-03-27T23:28:14.236Z,97674.81
2023-03-27T23:30:15.683Z,97662.56
2023-03-27T23:32:17.006Z,97540.72
2023-03-27T23:34:18.313Z,97664.66
2023-03-27T23:36:19.825Z,97670.94
2023-03-27T23:40:22.434Z,97661.56
2023-03-27T23:42:23.759Z,97663.78
2023-03-27T23:44:25.262Z,97658.59
2023-03-27T23:46:26.584Z,97661.84
2023-03-27T23:48:27.931Z,97657.88
2023-03-27T23:50:29.231Z,97662.28
2023-03-27T23:52:30.714Z,97658.94
2023-03-27T23:54:32.027Z,97660.81
2023-03-27T23:56:33.371Z,97661.69
2023-03-27T23:58:35.049Z,97663.44
